createdAt,value
2018-05-18T00:01:17.525Z,6.10
2018-05-18T00:03:45.985Z,6.47
2018-05-18T00:06:14.497Z,6.20
2018-05-18T00:08:42.995Z,6.23
2018-05-18T00:11:11.512Z,5.70
2018-05-18T00:13:40.084Z,6.07
2018-05-18T00:16:08.608Z,5.90
2018-05-18T00:18:37.088Z,6.13
2018-05-18T00:21:05.593Z,4.73
2018-05-18T00:23:34.118Z,5.60
2018-05-18T00:26:02.609Z,5.83
2018-05-18T00:28:31.130Z,4.63
2018-05-18T00:30:59.620Z,5.77
2018-05-18T00:33:28.133Z,6.00
2018-05-18T00:35:56.635Z,6.10
2018-05-18T00:38:25.144Z,7.07
2018-05-18T00:40:53.672Z,5.70
2018-05-18T00:43:22.175Z,4.80
2018-05-18T00:45:50.715Z,5.20
2018-05-18T00:48:19.277Z,5.20
2018-05-18T00:50:47.748Z,5.37
2018-05-18T00:53:16.257Z,6.20
2018-05-18T00:55:44.732Z,7.00
2018-05-18T00:58:13.240Z,6.83
2018-05-18T01:00:41.732Z,7.90
2018-05-18T01:03:10.287Z,8.10
2018-05-18T01:05:38.788Z,8.43
2018-05-18T01:08:07.274Z,9.13
2018-05-18T01:10:35.807Z,9.47
2018-05-18T01:13:04.374Z,9.60
2018-05-18T01:15:32.904Z,9.03
2018-05-18T01:18:01.412Z,8.70
2018-05-18T01:20:29.959Z,9.30
2018-05-18T01:22:58.492Z,10.73
2018-05-18T01:25:27.064Z,11.33
2018-05-18T01:27:55.560Z,10.97
2018-05-18T01:30:24.040Z,10.23
2018-05-18T01:32:52.609Z,8.03
2018-05-18T01:35:21.085Z,7.20
2018-05-18T01:37:49.592Z,7.30
2018-05-18T01:40:18.121Z,6.70
2018-05-18T01:42:46.661Z,7.20
2018-05-18T01:45:15.133Z,7.33
2018-05-18T01:47:43.652Z,8.23
2018-05-18T01:50:12.173Z,8.40
2018-05-18T01:52:40.640Z,8.43
2018-05-18T01:55:09.121Z,8.03
2018-05-18T01:57:37.629Z,8.70
2018-05-18T02:00:06.145Z,9.07
2018-05-18T02:02:34.700Z,9.70
2018-05-18T02:05:03.222Z,9.47
2018-05-18T02:07:31.742Z,8.87
2018-05-18T02:10:00.276Z,9.83
2018-05-18T02:12:28.756Z,9.50
2018-05-18T02:14:57.252Z,9.37
2018-05-18T02:17:25.760Z,8.93
2018-05-18T02:19:54.217Z,9.87
2018-05-18T02:22:22.725Z,9.80
2018-05-18T02:24:51.240Z,9.53
2018-05-18T02:27:19.717Z,9.43
2018-05-18T02:29:48.232Z,10.03
2018-05-18T02:32:16.714Z,10.10
2018-05-18T02:34:45.229Z,10.17
2018-05-18T02:37:13.722Z,10.77
2018-05-18T02:39:42.253Z,10.57
2018-05-18T02:42:10.793Z,10.53
2018-05-18T02:44:39.312Z,9.93
2018-05-18T02:47:07.860Z,9.87
2018-05-18T02:49:36.390Z,9.87
2018-05-18T02:52:04.933Z,9.50
2018-05-18T02:54:33.462Z,9.60
2018-05-18T02:57:01.976Z,8.77
2018-05-18T02:59:30.519Z,8.07
2018-05-18T03:01:59.006Z,7.83
2018-05-18T03:04:27.520Z,7.83
2018-05-18T03:06:55.977Z,8.40
2018-05-18T03:09:24.476Z,9.20
2018-05-18T03:11:53.025Z,8.13
2018-05-18T03:14:21.524Z,9.47
2018-05-18T03:16:50.017Z,8.30
2018-05-18T03:19:18.547Z,9.93
2018-05-18T03:21:47.086Z,8.33
2018-05-18T03:24:15.567Z,9.07
2018-05-18T03:26:44.094Z,8.63
2018-05-18T03:29:12.601Z,7.83
2018-05-18T03:31:41.105Z,8.10
2018-05-18T03:34:09.572Z,8.33
2018-05-18T03:36:38.076Z,8.60
2018-05-18T03:39:06.627Z,8.67
2018-05-18T03:41:35.149Z,8.83
2018-05-18T03:44:03.634Z,9.23
2018-05-18T03:46:32.156Z,9.17
2018-05-18T03:49:00.632Z,8.47
2018-05-18T03:51:29.144Z,8.70
2018-05-18T03:53:57.617Z,9.20
2018-05-18T03:56:26.133Z,9.87
2018-05-18T03:58:54.604Z,10.33
2018-05-18T04:01:34.829Z,8.83
2018-05-18T04:04:14.904Z,7.80
2018-05-18T04:06:55.012Z,8.37
2018-05-18T04:09:23.509Z,8.23
2018-05-18T04:11:51.989Z,8.20
2018-05-18T04:14:20.500Z,7.63
2018-05-18T04:16:49.049Z,8.80
2018-05-18T04:19:17.596Z,9.50
2018-05-18T04:21:46.090Z,8.73
2018-05-18T04:24:14.577Z,6.87
2018-05-18T04:26:43.088Z,9.93
2018-05-18T04:29:11.580Z,8.93
2018-05-18T04:31:40.112Z,7.93
2018-05-18T04:34:08.616Z,8.73
2018-05-18T04:36:37.102Z,8.97
2018-05-18T04:39:06.460Z,9.00
2018-05-18T04:41:34.960Z,9.20
2018-05-18T04:44:03.472Z,12.93
2018-05-18T04:46:31.980Z,11.13
2018-05-18T04:49:00.500Z,10.87
2018-05-18T04:51:29.001Z,10.33
2018-05-18T04:53:57.530Z,13.13
2018-05-18T04:56:26.011Z,11.33
2018-05-18T04:58:54.548Z,11.63
2018-05-18T05:01:23.041Z,11.43
2018-05-18T05:03:51.564Z,8.63
2018-05-18T05:06:20.040Z,8.67
2018-05-18T05:08:48.508Z,7.07
2018-05-18T05:11:17.035Z,7.43
2018-05-18T05:13:45.532Z,7.00
2018-05-18T05:16:14.056Z,7.03
2018-05-18T05:18:42.580Z,6.00
2018-05-18T05:21:11.070Z,5.50
2018-05-18T05:23:39.652Z,7.10
2018-05-18T05:26:08.093Z,5.80
2018-05-18T05:28:36.619Z,5.30
2018-05-18T05:31:05.379Z,5.20
2018-05-18T05:33:33.908Z,7.97
2018-05-18T05:36:02.410Z,5.57
2018-05-18T05:38:30.887Z,4.57
2018-05-18T05:40:59.501Z,5.27
2018-05-18T05:43:28.020Z,3.97
2018-05-18T05:45:56.533Z,4.37
2018-05-18T05:48:25.045Z,4.97
2018-05-18T05:50:53.526Z,4.10
2018-05-18T05:53:22.028Z,3.80
2018-05-18T05:55:50.540Z,4.43
2018-05-18T05:58:19.016Z,4.47
2018-05-18T06:00:47.542Z,4.90
2018-05-18T06:03:16.061Z,4.80
2018-05-18T06:05:44.541Z,5.10
2018-05-18T06:08:13.048Z,5.03
2018-05-18T06:10:41.528Z,5.23
2018-05-18T06:13:10.068Z,4.60
2018-05-18T06:15:38.553Z,5.07
2018-05-18T06:18:07.076Z,5.93
2018-05-18T06:20:35.598Z,6.03
2018-05-18T06:23:04.170Z,5.03
2018-05-18T06:25:32.680Z,4.23
2018-05-18T06:28:01.190Z,3.60
2018-05-18T06:30:29.705Z,4.17
2018-05-18T06:32:58.221Z,4.07
2018-05-18T06:35:26.694Z,3.60
2018-05-18T06:37:55.249Z,4.00
2018-05-18T06:40:23.757Z,3.60
2018-05-18T06:42:52.265Z,3.87
2018-05-18T06:45:20.805Z,4.50
2018-05-18T06:47:49.348Z,3.80
2018-05-18T06:50:17.844Z,4.00
2018-05-18T06:52:46.373Z,3.87
2018-05-18T06:55:14.899Z,3.80
2018-05-18T06:57:43.428Z,5.70
2018-05-18T07:00:11.971Z,5.13
2018-05-18T07:02:40.533Z,4.20
2018-05-18T07:05:09.039Z,4.30
2018-05-18T07:07:37.524Z,3.87
2018-05-18T07:10:06.089Z,4.57
2018-05-18T07:12:34.634Z,3.83
2018-05-18T07:15:03.343Z,3.57
2018-05-18T07:17:31.832Z,3.80
2018-05-18T07:20:00.376Z,3.90
2018-05-18T07:22:28.859Z,5.10
2018-05-18T07:24:57.364Z,4.07
2018-05-18T07:27:25.885Z,4.20
2018-05-18T07:29:54.402Z,3.80
2018-05-18T07:32:22.964Z,4.40
2018-05-18T07:34:51.499Z,4.17
2018-05-18T07:37:19.988Z,3.90
2018-05-18T07:39:48.504Z,4.30
2018-05-18T07:42:17.041Z,4.50
2018-05-18T07:44:45.546Z,4.00
2018-05-18T07:47:14.026Z,4.20
2018-05-18T07:49:42.682Z,4.00
2018-05-18T07:52:11.239Z,4.80
2018-05-18T07:54:39.768Z,4.67
2018-05-18T07:57:08.245Z,4.00
2018-05-18T07:59:36.772Z,4.33
2018-05-18T08:02:05.281Z,4.63
2018-05-18T08:04:33.833Z,4.43
2018-05-18T08:07:02.309Z,5.10
2018-05-18T08:09:30.820Z,5.30
2018-05-18T08:11:59.301Z,5.13
2018-05-18T08:14:27.837Z,4.30
2018-05-18T08:16:56.301Z,4.40
2018-05-18T08:19:24.842Z,4.80
2018-05-18T08:21:53.401Z,6.67
2018-05-18T08:24:21.879Z,4.97
2018-05-18T08:27:02.182Z,4.73
2018-05-18T08:29:36.421Z,4.80
2018-05-18T08:32:05.109Z,5.23
2018-05-18T08:34:33.616Z,6.37
2018-05-18T08:37:02.150Z,5.37
2018-05-18T08:39:30.629Z,5.00
2018-05-18T08:41:59.122Z,5.30
2018-05-18T08:44:27.749Z,5.03
2018-05-18T08:46:56.221Z,5.03
2018-05-18T08:49:24.724Z,5.43
2018-05-18T08:51:53.233Z,5.80
2018-05-18T08:54:21.787Z,6.20
2018-05-18T08:56:50.361Z,6.17
2018-05-18T08:59:18.871Z,5.93
2018-05-18T09:01:47.344Z,6.27
2018-05-18T09:04:15.925Z,6.80
2018-05-18T09:06:44.517Z,6.60
2018-05-18T09:09:13.024Z,6.90
2018-05-18T09:11:41.504Z,6.53
2018-05-18T09:14:10.013Z,6.33
2018-05-18T09:16:38.519Z,6.40
2018-05-18T09:19:07.047Z,6.37
2018-05-18T09:21:35.573Z,6.33
2018-05-18T09:24:04.089Z,6.63
2018-05-18T09:26:32.654Z,6.80
2018-05-18T09:29:01.164Z,6.77
2018-05-18T09:31:29.781Z,6.67
2018-05-18T09:33:58.295Z,6.93
2018-05-18T09:36:26.836Z,6.93
2018-05-18T09:38:55.325Z,6.17
2018-05-18T09:41:23.820Z,6.93
2018-05-18T09:43:52.331Z,6.17
2018-05-18T09:46:20.809Z,6.80
2018-05-18T09:48:49.796Z,6.90
2018-05-18T09:51:18.321Z,6.93
2018-05-18T09:53:46.838Z,6.90
2018-05-18T09:56:15.410Z,6.40
2018-05-18T09:58:43.921Z,6.13
2018-05-18T10:01:12.397Z,6.77
2018-05-18T10:03:40.929Z,6.70
2018-05-18T10:06:09.441Z,6.10
2018-05-18T10:08:37.960Z,5.33
2018-05-18T10:11:06.500Z,5.27
2018-05-18T10:13:34.961Z,5.20
2018-05-18T10:16:03.434Z,4.60
2018-05-18T10:18:32.026Z,3.97
2018-05-18T10:21:00.484Z,3.23
2018-05-18T10:23:29.008Z,3.70
2018-05-18T10:25:57.518Z,3.40
2018-05-18T10:28:27.248Z,3.00
2018-05-18T10:30:55.768Z,3.07
2018-05-18T10:33:24.280Z,3.00
2018-05-18T10:35:52.756Z,3.77
2018-05-18T10:38:21.319Z,3.57
2018-05-18T10:40:49.798Z,3.37
2018-05-18T10:43:18.357Z,3.10
2018-05-18T10:45:46.886Z,3.40
2018-05-18T10:48:15.401Z,4.73
2018-05-18T10:50:44.593Z,3.30
2018-05-18T10:53:13.188Z,3.33
2018-05-18T10:55:41.732Z,3.30
2018-05-18T10:58:10.237Z,3.63
2018-05-18T11:00:38.722Z,3.07
2018-05-18T11:03:07.255Z,2.77
2018-05-18T11:05:35.814Z,3.40
2018-05-18T11:08:04.425Z,3.30
2018-05-18T11:10:32.989Z,3.57
2018-05-18T11:13:01.473Z,3.70
2018-05-18T11:15:30.052Z,3.33
2018-05-18T11:17:58.572Z,3.50
2018-05-18T11:20:27.094Z,3.87
2018-05-18T11:22:55.617Z,3.30
2018-05-18T11:25:24.110Z,3.70
2018-05-18T11:27:52.645Z,3.40
2018-05-18T11:30:21.163Z,3.70
2018-05-18T11:32:49.693Z,3.33
2018-05-18T11:35:18.188Z,3.33
2018-05-18T11:37:46.680Z,3.67
2018-05-18T11:40:15.232Z,3.37
2018-05-18T11:42:43.811Z,3.60
2018-05-18T11:45:12.338Z,3.27
2018-05-18T11:47:40.837Z,4.07
2018-05-18T11:50:09.380Z,3.60
2018-05-18T11:52:37.894Z,3.67
2018-05-18T11:55:06.433Z,5.03
2018-05-18T11:57:34.904Z,3.87
2018-05-18T12:00:03.432Z,3.90
2018-05-18T12:02:31.973Z,3.20
2018-05-18T12:05:00.514Z,3.67
2018-05-18T12:07:28.997Z,3.20
2018-05-18T12:09:57.524Z,3.50
2018-05-18T12:12:26.066Z,3.40
2018-05-18T12:14:54.722Z,3.70
2018-05-18T12:17:23.243Z,3.80
2018-05-18T12:19:51.730Z,3.33
2018-05-18T12:22:20.241Z,3.93
2018-05-18T12:24:48.726Z,3.80
2018-05-18T12:27:17.255Z,3.67
2018-05-18T12:29:45.802Z,4.07
2018-05-18T12:32:14.276Z,4.00
2018-05-18T12:34:42.795Z,3.60
2018-05-18T12:37:11.273Z,4.00
2018-05-18T12:39:39.825Z,4.07
2018-05-18T12:42:08.312Z,3.97
2018-05-18T12:44:36.845Z,4.33
2018-05-18T12:47:05.363Z,4.53
2018-05-18T12:49:33.920Z,4.50
2018-05-18T12:52:02.426Z,4.30
2018-05-18T12:54:30.949Z,4.17
2018-05-18T12:56:59.488Z,4.07
2018-05-18T12:59:28.046Z,4.40
2018-05-18T13:01:56.537Z,4.47
2018-05-18T13:04:25.097Z,4.10
2018-05-18T13:06:53.616Z,4.23
2018-05-18T13:09:22.136Z,4.47
2018-05-18T13:11:50.613Z,5.13
2018-05-18T13:14:19.124Z,4.37
2018-05-18T13:16:46.923Z,3.83
2018-05-18T13:19:15.161Z,4.83
2018-05-18T13:21:43.673Z,4.17
2018-05-18T13:24:12.184Z,4.20
2018-05-18T13:26:40.764Z,3.83
2018-05-18T13:29:09.262Z,4.50
2018-05-18T13:31:37.792Z,4.00
2018-05-18T13:34:06.338Z,3.83
2018-05-18T13:36:34.829Z,4.70
2018-05-18T13:39:03.429Z,4.67
2018-05-18T13:41:32.008Z,4.60
2018-05-18T13:44:00.519Z,4.70
2018-05-18T13:46:29.078Z,4.77
2018-05-18T13:48:57.557Z,4.53
2018-05-18T13:51:26.080Z,4.60
2018-05-18T13:53:54.563Z,5.30
2018-05-18T13:56:23.080Z,5.17
2018-05-18T13:58:51.566Z,4.53
2018-05-18T14:01:20.076Z,4.73
2018-05-18T14:03:48.585Z,4.67
2018-05-18T14:06:17.114Z,4.90
2018-05-18T14:08:45.628Z,4.97
2018-05-18T14:11:14.082Z,4.97
2018-05-18T14:13:42.586Z,4.67
2018-05-18T14:16:11.073Z,4.43
2018-05-18T14:18:39.583Z,4.33
2018-05-18T14:21:08.064Z,4.50
2018-05-18T14:23:36.572Z,4.20
2018-05-18T14:26:05.130Z,5.00
2018-05-18T14:28:33.608Z,4.90
2018-05-18T14:31:02.112Z,4.67
2018-05-18T14:33:30.649Z,4.50
2018-05-18T14:35:59.132Z,4.60
2018-05-18T14:38:27.649Z,4.00
2018-05-18T14:40:56.149Z,4.57
2018-05-18T14:43:24.657Z,4.37
2018-05-18T14:45:53.144Z,4.30
2018-05-18T14:48:21.657Z,4.97
2018-05-18T14:50:50.118Z,4.57
2018-05-18T14:53:18.641Z,4.00
2018-05-18T14:55:47.126Z,4.37
2018-05-18T14:58:15.696Z,4.57
2018-05-18T15:00:44.190Z,4.73
2018-05-18T15:03:12.668Z,4.10
2018-05-18T15:05:41.272Z,6.03
2018-05-18T15:08:09.696Z,4.97
2018-05-18T15:10:38.216Z,5.00
2018-05-18T15:13:06.689Z,4.70
2018-05-18T15:15:35.224Z,4.00
2018-05-18T15:18:03.753Z,4.13
2018-05-18T15:20:32.272Z,4.70
2018-05-18T15:23:00.754Z,4.70
2018-05-18T15:25:29.281Z,4.30
2018-05-18T15:27:57.753Z,4.80
2018-05-18T15:30:26.236Z,4.40
2018-05-18T15:32:54.742Z,5.27
2018-05-18T15:35:23.257Z,4.50
2018-05-18T15:37:51.775Z,5.10
2018-05-18T15:40:20.293Z,5.00
2018-05-18T15:42:48.972Z,4.93
2018-05-18T15:45:17.518Z,4.87
2018-05-18T15:47:45.998Z,4.83
2018-05-18T15:50:14.517Z,5.00
2018-05-18T15:52:42.987Z,4.23
2018-05-18T15:55:11.527Z,4.80
2018-05-18T15:57:40.046Z,4.03
2018-05-18T16:00:08.533Z,4.13
2018-05-18T16:02:37.060Z,4.80
2018-05-18T16:05:05.543Z,4.60
2018-05-18T16:07:34.064Z,4.33
2018-05-18T16:10:02.532Z,4.23
2018-05-18T16:12:31.066Z,4.30
2018-05-18T16:14:59.590Z,4.17
2018-05-18T16:17:28.062Z,4.10
2018-05-18T16:19:56.585Z,4.43
2018-05-18T16:22:25.053Z,5.03
2018-05-18T16:24:53.533Z,4.17
2018-05-18T16:27:22.048Z,4.30
2018-05-18T16:29:50.517Z,4.30
2018-05-18T16:32:19.029Z,4.37
2018-05-18T16:34:47.534Z,4.57
2018-05-18T16:37:16.000Z,4.73
2018-05-18T16:39:44.512Z,4.70
2018-05-18T16:42:13.000Z,4.47
2018-05-18T16:44:41.563Z,4.30
2018-05-18T16:47:10.196Z,4.17
2018-05-18T16:49:38.664Z,4.47
2018-05-18T16:52:07.114Z,4.37
2018-05-18T16:54:35.624Z,4.40
2018-05-18T16:57:04.110Z,4.20
2018-05-18T16:59:32.602Z,3.90
2018-05-18T17:02:01.064Z,4.47
2018-05-18T17:04:29.584Z,3.73
2018-05-18T17:06:58.063Z,4.60
2018-05-18T17:09:26.597Z,4.03
2018-05-18T17:11:55.057Z,4.27
2018-05-18T17:14:23.568Z,4.50
2018-05-18T17:16:52.014Z,4.50
2018-05-18T17:19:20.551Z,4.30
2018-05-18T17:21:49.033Z,4.27
2018-05-18T17:24:17.520Z,4.00
2018-05-18T17:26:45.960Z,5.90
2018-05-18T17:29:14.465Z,4.63
2018-05-18T17:31:42.988Z,4.70
2018-05-18T17:34:11.482Z,4.40
2018-05-18T17:36:39.990Z,4.90
2018-05-18T17:39:08.525Z,4.73
2018-05-18T17:41:36.992Z,5.20
2018-05-18T17:44:05.452Z,4.83
2018-05-18T17:46:33.939Z,5.00
2018-05-18T17:49:02.450Z,5.67
2018-05-18T17:51:30.953Z,4.90
2018-05-18T17:53:59.411Z,6.40
2018-05-18T17:56:27.912Z,6.00
2018-05-18T17:58:56.372Z,5.70
2018-05-18T18:01:24.930Z,5.70
2018-05-18T18:03:53.414Z,5.63
2018-05-18T18:06:22.120Z,5.77
2018-05-18T18:08:51.317Z,5.10
2018-05-18T18:11:19.787Z,4.67
2018-05-18T18:13:48.289Z,3.87
2018-05-18T18:16:16.773Z,3.77
2018-05-18T18:18:46.106Z,4.00
2018-05-18T18:21:14.612Z,4.43
2018-05-18T18:23:43.075Z,6.53
2018-05-18T18:26:11.525Z,4.10
2018-05-18T18:28:40.124Z,4.27
2018-05-18T18:31:08.534Z,3.50
2018-05-18T18:33:37.008Z,4.03
2018-05-18T18:36:05.481Z,4.63
2018-05-18T18:38:33.932Z,3.97
2018-05-18T18:41:02.431Z,3.77
2018-05-18T18:43:30.867Z,4.23
2018-05-18T18:45:59.370Z,4.23
2018-05-18T18:48:27.846Z,5.00
2018-05-18T18:50:56.336Z,5.43
2018-05-18T18:53:24.788Z,5.93
2018-05-18T18:55:53.261Z,6.50
2018-05-18T18:58:21.740Z,6.30
2018-05-18T19:00:50.235Z,5.60
2018-05-18T19:03:18.721Z,6.23
2018-05-18T19:05:47.150Z,6.97
2018-05-18T19:08:15.644Z,6.37
2018-05-18T19:10:44.097Z,7.47
2018-05-18T19:13:12.588Z,6.83
2018-05-18T19:15:41.058Z,6.83
2018-05-18T19:18:09.541Z,6.37
2018-05-18T19:20:38.001Z,6.33
2018-05-18T19:23:06.472Z,6.80
2018-05-18T19:25:34.933Z,6.80
2018-05-18T19:28:03.408Z,6.70
2018-05-18T19:30:31.941Z,6.33
2018-05-18T19:33:00.431Z,5.93
2018-05-18T19:35:28.974Z,6.43
2018-05-18T19:37:57.430Z,6.37
2018-05-18T19:40:25.932Z,5.73
2018-05-18T19:42:54.412Z,6.10
2018-05-18T19:45:22.896Z,6.40
2018-05-18T19:47:51.350Z,7.10
2018-05-18T19:50:19.832Z,6.60
2018-05-18T19:52:48.329Z,6.20
2018-05-18T19:55:16.781Z,6.57
2018-05-18T19:57:45.248Z,6.90
2018-05-18T20:00:13.725Z,6.23
2018-05-18T20:02:42.205Z,6.33
2018-05-18T20:05:10.661Z,6.27
2018-05-18T20:07:39.144Z,6.63
2018-05-18T20:10:07.597Z,6.20
2018-05-18T20:12:36.094Z,6.60
2018-05-18T20:15:04.572Z,6.57
2018-05-18T20:17:33.053Z,6.80
2018-05-18T20:20:01.534Z,6.47
2018-05-18T20:22:29.976Z,7.00
2018-05-18T20:24:58.533Z,6.33
2018-05-18T20:27:26.987Z,6.70
2018-05-18T20:29:55.472Z,7.63
2018-05-18T20:32:23.977Z,7.97
2018-05-18T20:34:52.474Z,7.97
2018-05-18T20:37:20.964Z,8.90
2018-05-18T20:39:49.404Z,8.40
2018-05-18T20:42:17.897Z,7.50
2018-05-18T20:44:46.433Z,7.37
2018-05-18T20:47:14.877Z,7.90
2018-05-18T20:49:43.348Z,8.30
2018-05-18T20:52:11.855Z,7.97
2018-05-18T20:54:40.300Z,6.77
2018-05-18T20:57:08.784Z,7.20
2018-05-18T20:59:37.258Z,7.43
2018-05-18T21:02:05.764Z,7.53
2018-05-18T21:04:34.208Z,7.93
2018-05-18T21:07:02.729Z,7.43
2018-05-18T21:09:31.246Z,8.27
2018-05-18T21:11:59.738Z,7.67
2018-05-18T21:14:28.193Z,7.90
2018-05-18T21:16:56.693Z,7.90
2018-05-18T21:19:25.161Z,7.13
2018-05-18T21:21:53.680Z,6.60
2018-05-18T21:24:22.151Z,7.40
2018-05-18T21:26:50.641Z,7.20
2018-05-18T21:29:19.120Z,6.23
2018-05-18T21:31:47.564Z,6.60
2018-05-18T21:34:16.082Z,5.97
2018-05-18T21:36:44.591Z,6.27
2018-05-18T21:39:13.032Z,5.73
2018-05-18T21:41:41.512Z,5.43
2018-05-18T21:44:09.973Z,6.13
2018-05-18T21:46:38.457Z,5.93
2018-05-18T21:49:06.989Z,5.60
2018-05-18T21:51:35.438Z,5.60
2018-05-18T21:54:03.946Z,5.37
2018-05-18T21:56:32.458Z,5.10
2018-05-18T21:59:00.901Z,5.17
2018-05-18T22:01:29.409Z,4.33
2018-05-18T22:03:57.880Z,4.23
2018-05-18T22:06:26.409Z,3.83
2018-05-18T22:08:54.830Z,4.03
2018-05-18T22:11:23.336Z,3.80
2018-05-18T22:13:51.784Z,3.40
2018-05-18T22:16:20.304Z,3.10
2018-05-18T22:18:48.852Z,3.00
2018-05-18T22:21:17.332Z,2.93
2018-05-18T22:23:45.832Z,2.93
2018-05-18T22:26:14.304Z,2.80
2018-05-18T22:28:42.788Z,2.80
2018-05-18T22:31:11.258Z,2.63
2018-05-18T22:33:39.761Z,2.83
2018-05-18T22:36:08.233Z,2.80
2018-05-18T22:38:36.769Z,2.73
2018-05-18T22:41:05.217Z,2.80
2018-05-18T22:43:33.732Z,2.70
2018-05-18T22:46:02.161Z,3.17
2018-05-18T22:48:30.652Z,3.20
2018-05-18T22:50:59.137Z,3.20
2018-05-18T22:53:27.648Z,3.87
2018-05-18T22:55:56.156Z,3.80
2018-05-18T22:58:24.607Z,3.30
2018-05-18T23:00:53.092Z,3.50
2018-05-18T23:03:21.573Z,3.27
2018-05-18T23:05:50.108Z,3.93
2018-05-18T23:08:18.576Z,3.90
2018-05-18T23:10:47.112Z,4.30
2018-05-18T23:13:15.681Z,4.10
2018-05-18T23:15:44.160Z,3.77
2018-05-18T23:18:12.684Z,4.10
2018-05-18T23:20:41.189Z,4.03
2018-05-18T23:23:09.670Z,4.00
2018-05-18T23:25:38.198Z,4.13
2018-05-18T23:28:06.693Z,4.47
2018-05-18T23:30:35.208Z,4.17
2018-05-18T23:33:03.688Z,4.40
2018-05-18T23:35:32.164Z,5.10
2018-05-18T23:38:00.683Z,4.40
2018-05-18T23:40:29.162Z,5.00
2018-05-18T23:42:57.707Z,4.40
2018-05-18T23:45:26.191Z,4.60
2018-05-18T23:47:54.759Z,5.30
2018-05-18T23:50:23.236Z,5.40
2018-05-18T23:52:51.748Z,5.63
2018-05-18T23:55:20.229Z,5.77
2018-05-18T23:57:48.705Z,5.30
